D/T METAR WX W/DIR W/SPE G/SPE TEMP DEWP
16/01/19 03:17 EGVA 160317Z AUTO 23013KT 2000 BR BKN012 OVC018 08/07 A2979 RMK AO2 VIS 1400V4000 BKN V OVC SLP093 $ BR SW (230°) 15.0mph 8°C 7°C
16/01/19 02:50 EGVA 160250Z AUTO 23015KT 3200 BR OVC012 09/07 A2980 RMK AO2 VIS 1200V3200 SLP096 $ BR SW (230°) 17.3mph 9°C 7°C
16/01/19 02:20 EGVA 160220Z AUTO 23012KT 3600 BR OVC014 08/07 A2981 RMK AO2 VIS 2000V3600 SLP099 $ BR SW (230°) 13.8mph 8°C 7°C
16/01/19 01:50 EGVA 160150Z AUTO 22013KT 2600 BR BKN016 OVC034 08/06 A2982 RMK AO2 CIG 016V034 SLP103 $ BR SW (220°) 15.0mph 8°C 6°C
16/01/19 01:19 EGVA 160119Z AUTO 23012KT 9000 BR BKN031 08/06 A2984 RMK AO2 SLP110 $ BR SW (230°) 13.8mph 8°C 6°C
16/01/19 00:49 EGVA 160049Z AUTO 23011KT 2400 BR SCT022 BKN028 OVC034 08/06 A2986 RMK AO2 CIG 023V028 SLP117 $ BR SW (230°) 12.7mph 8°C 6°C
16/01/19 00:20 EGVA 160020Z AUTO 23013KT 6000 BR SCT028 SCT035 BKN130 08/06 A2986 RMK AO2 SLP117 $ BR SW (230°) 15.0mph 8°C 6°C
15/01/19 23:39 EGVA 152339Z AUTO 22011KT 9000 BR SCT032 OVC130 08/06 A2988 RMK AO2 SLP124 $ BR SW (220°) 12.7mph 8°C 6°C
15/01/19 21:19 EGVA 152119Z AUTO 23009KT 1600 R27/0600VP1500 HZ BKN025 OVC030 07/05 A2994 RMK AO2 VIS 1600V2600 SLP144 $ HZ SW (230°) 10.4mph 7°C 5°C
15/01/19 20:51 EGVA 152051Z AUTO 23008KT 2000 BR OVC024 07/05 A2994 RMK AO2 VIS 2000V6000 SLP144 $ BR SW (230°) 9.2mph 7°C 5°C
15/01/19 20:22 EGVA 152022Z AUTO 23010KT 4000 BR SCT014 OVC022 08/06 A2995 RMK AO2 VIS 1600V4000 CIG 012V022 CIG 017 RWY09 SLP148 $ BR SW (230°) 11.5mph 8°C 6°C
15/01/19 19:47 EGVA 151947Z AUTO 24008KT 6000 BR SCT007 OVC012 07/07 A2996 RMK AO2 CIG 007V012 SLP151 $ BR WSW (240°) 9.2mph 7°C 7°C
15/01/19 19:21 EGVA 151921Z AUTO 24010KT 5000 BR OVC007 08/07 A2997 RMK AO2 SLP155 $ BR WSW (240°) 11.5mph 8°C 7°C
15/01/19 18:51 EGVA 151851Z AUTO 23007KT 1200 R27/0800VP1500 BR OVC006 08/07 A2998 RMK AO2 VIS 1200V9999 SLP158 $ BR SW (230°) 8.1mph 8°C 7°C
15/01/19 18:16 EGVA 151816Z AUTO 24009KT 2800 BR BKN007 OVC013 08/07 A2998 RMK AO2 VIS 2800V5000 CIG 007V015 BKN V SCT SLP158 $ BR WSW (240°) 10.4mph 8°C 7°C
15/01/19 17:53 EGVA 151753Z AUTO 24011KT 4000 BR SCT009 BKN016 OVC024 08/07 A2999 RMK AO2 VIS 2600V4000 CIG 016V024 BKN V SCT SLP162 $ BR WSW (240°) 12.7mph 8°C 7°C
15/01/19 17:16 EGVA 151716Z AUTO 25008KT 2200 BR OVC023 08/06 A3000 RMK AO2 VIS 2200V6000 OVC V BKN SLP165 $ BR WSW (250°) 9.2mph 8°C 6°C
15/01/19 16:52 EGVA 151652Z AUTO 24009KT 5000 BR FEW010 SCT019 SCT027 08/06 A3000 RMK AO2 SLP165 $ BR WSW (240°) 10.4mph 8°C 6°C
15/01/19 16:16 EGVA 151616Z AUTO 25012KT 6000 BR SCT009 BKN016 OVC031 08/07 A3001 RMK AO2 CIG 009V016 CIG 015 RWY09 SLP169 $ BR WSW (250°) 13.8mph 8°C 7°C
15/01/19 15:49 EGVA 151549Z AUTO 25011KT 3200 BR BKN009 OVC016 08/07 A3001 RMK AO2 VIS 1800V3200 SLP169 $ BR WSW (250°) 12.7mph 8°C 7°C
15/01/19 15:17 EGVA 151517Z AUTO 23008KT 6000 BR FEW017 OVC028 09/07 A3002 RMK AO2 SLP172 $ BR SW (230°) 9.2mph 9°C 7°C
15/01/19 14:51 EGVA 151451Z AUTO 22008KT 9999 SCT019 OVC028 09/06 A3002 RMK AO2 VIS 3600 RWY27 CIG 018V028 CIG 018 RWY27 SLP172 $ SW (220°) 9.2mph 9°C 6°C
15/01/19 14:21 EGVA 151421Z AUTO 23009KT 9999 FEW016 BKN028 09/07 A3003 RMK AO2 VIS 1800 RWY27 SLP176 $ SW (230°) 10.4mph 9°C 7°C
15/01/19 13:27 EGVA 151327Z AUTO 26009KT 8000 HZ FEW015 BKN023 OVC031 09/06 A3005 RMK AO2 CIG 023V031 SLP182 $ HZ W (260°) 10.4mph 9°C 6°C
15/01/19 13:22 EGVA 151322Z AUTO 25009KT 3600 HZ SCT024 OVC031 09/07 A3005 RMK AO2 VIS 3600V5000 SLP183 $ HZ WSW (250°) 10.4mph 9°C 7°C
15/01/19 12:54 EGVA 151254Z AUTO 26009KT 2800 BR OVC032 09/07 A3006 RMK AO2 VIS 1200V3200 SLP186 $ BR W (260°) 10.4mph 9°C 7°C
15/01/19 12:24 EGVA 151224Z AUTO 25009KT 2800 BR BKN012 OVC031 08/08 A3007 RMK AO2 VIS 1000V2800 SLP189 $ BR WSW (250°) 10.4mph 8°C 8°C
15/01/19 11:48 EGVA 151148Z AUTO 24007KT 2800 BR OVC005 07/07 A3009 RMK AO2 VIS 1000V2800 DZB07E17 SLP196 $ BR WSW (240°) 8.1mph 7°C 7°C
15/01/19 11:21 EGVA 151121Z AUTO 23008KT 1800 BR OVC005 07/06 A3010 RMK AO2 VIS 1000V1800 DZB07E17 SLP200 $ BR SW (230°) 9.2mph 7°C 6°C
15/01/19 10:52 EGVA 151052Z AUTO 24008KT 3200 BR OVC008 07/06 A3011 RMK AO2 VIS 1600V3600 CIG 007 RWY09 SLP203 $ BR WSW (240°) 9.2mph 7°C 6°C
15/01/19 10:21 EGVA 151021Z AUTO 23009KT 4400 BR OVC007 07/06 A3011 RMK AO2 VIS 4400V6000 SLP203 $ BR SW (230°) 10.4mph 7°C 6°C
15/01/19 09:55 EGVA 150955Z AUTO 24008KT 2800 BR OVC008 07/06 A3011 RMK AO2 VIS 2600V4000 SLP203 $ BR WSW (240°) 9.2mph 7°C 6°C
15/01/19 09:23 EGVA 150923Z AUTO 23008KT 1200 R27/0650VP1500 BR OVC010 07/05 A3011 RMK AO2 VIS 1000V3000 SLP203 $ BR SW (230°) 9.2mph 7°C 5°C
15/01/19 08:53 EGVA 150853Z AUTO 23008KT 1600 R27/0550VP1500 BR BKN011 OVC036 06/05 A3012 RMK AO2 VIS 0800V1800 BKN V OVC SLP207 $ BR SW (230°) 9.2mph 6°C 5°C
15/01/19 08:19 EGVA 150819Z AUTO 23006KT 0600 R27/0900VP1500 FG FEW012 OVC032 06/05 A3012 RMK AO2 VIS 0600V2400 SLP207 $ FG SW (230°) 6.9mph 6°C 5°C
15/01/19 07:42 EGVA 150742Z AUTO 22007KT 3000 BR OVC030 06/05 A3012 RMK AO2 VIS 2200V3200 SLP206 $ BR SW (220°) 8.1mph 6°C 5°C
15/01/19 07:20 EGVA 150720Z AUTO 22008KT 1200 R27/0550VP1500 BR OVC031 06/05 A3012 RMK AO2 SLP206 $ BR SW (220°) 9.2mph 6°C 5°C
15/01/19 06:53 EGVA 150653Z AUTO 22008KT 2600 BR OVC029 06/05 A3012 RMK AO2 VIS 1000V2600 SLP206 $ BR SW (220°) 9.2mph 6°C 5°C
15/01/19 06:22 EGVA 150622Z AUTO 24005KT 1200 R27/0650VP1500 BR OVC027 05/04 A3013 RMK AO2 SLP210 $ BR WSW (240°) 5.8mph 5°C 4°C
15/01/19 05:45 EGVA 150545Z AUTO 23004KT 8000 BR OVC027 05/03 A3013 RMK AO2 SLP209 $ BR SW (230°) 4.6mph 5°C 3°C
15/01/19 05:22 EGVA 150522Z AUTO 26006KT 4000 BR OVC025 05/03 A3014 RMK AO2 VIS 2400V4000 SLP213 $ BR W (260°) 6.9mph 5°C 3°C
15/01/19 04:52 EGVA 150452Z AUTO 25008KT 2000 BR OVC026 03/02 A3014 RMK AO2 VIS 1200V2000 SLP213 $ BR WSW (250°) 9.2mph 3°C 2°C
15/01/19 04:21 EGVA 150421Z AUTO 26004KT 0800 R27/0650V1300 FG OVC027 02/01 A3014 RMK AO2 VIS 0800V1600 OVC V BKN SLP213 $ FG W (260°) 4.6mph 2°C 1°C
15/01/19 03:51 EGVA 150351Z AUTO 25008KT 2000 BR CLR 02/00 A3015 RMK AO2 VIS 2000V2800 SLP216 $ BR WSW (250°) 9.2mph 2°C 0°C
15/01/19 03:18 EGVA 150318Z AUTO 25007KT 2800 BR CLR 02/01 A3016 RMK AO2 VIS 1200V2800 SLP220 $ BR WSW (250°) 8.1mph 2°C 1°C
15/01/19 02:51 EGVA 150251Z AUTO 25007KT 1000 R27/0750VP1500 BR CLR 01/M01 A3017 RMK AO2 VIS 1000V1800 SLP223 $ BR WSW (250°) 8.1mph 1°C -1°C
15/01/19 02:21 EGVA 150221Z AUTO 24005KT 4000 BR CLR 01/00 A3017 RMK AO2 VIS 1400V4000 SLP223 $ BR WSW (240°) 5.8mph 1°C 0°C
15/01/19 01:47 EGVA 150147Z AUTO 25010KT 3600 BR CLR 01/00 A3018 RMK AO2 VIS 1800V4000 SLP227 $ BR WSW (250°) 11.5mph 1°C 0°C
15/01/19 01:20 EGVA 150120Z AUTO 25010KT 2000 BR CLR 02/01 A3018 RMK AO2 VIS 2000V4400 SLP227 $ BR WSW (250°) 11.5mph 2°C 1°C
15/01/19 00:48 EGVA 150048Z AUTO 28011KT 1200 R27/0700VP1500 BR CLR 02/01 A3019 RMK AO2 SLP230 $ BR W (280°) 12.7mph 2°C 1°C
14/01/19 23:44 EGVA 142344Z AUTO 27008KT 2000 BR CLR 02/00 A3020 RMK AO2 VIS 1200V2400 SLP233 $ BR W (270°) 9.2mph 2°C 0°C
14/01/19 23:16 EGVA 142316Z AUTO 27010KT 1000 R27/0800VP1500 BR CLR 02/00 A3020 RMK AO2 SLP233 $ BR W (270°) 11.5mph 2°C 0°C
14/01/19 22:51 EGVA 142251Z AUTO 27009KT 1400 R27/0750VP1500 BR CLR 01/M01 A3020 RMK AO2 SLP234 $ BR W (270°) 10.4mph 1°C -1°C
14/01/19 22:21 EGVA 142221Z AUTO 25005KT 1200 R27/0800VP1500 BR CLR 00/M02 A3021 RMK AO2 SLP237 $ BR WSW (250°) 5.8mph 0°C -2°C
14/01/19 21:51 EGVA 142151Z AUTO 26006KT 2600 BR CLR 01/M01 A3021 RMK AO2 VIS 0800V2600 SLP237 $ BR W (260°) 6.9mph 1°C -1°C
14/01/19 21:23 EGVA 142123Z AUTO 27003KT 1200 R27/0800VP1500 HZ CLR 02/M01 A3022 RMK AO2 VIS 1200V2000 SLP241 $ HZ W (270°) 3.5mph 2°C -1°C
14/01/19 20:52 EGVA 142052Z AUTO 25006KT 1800 HZ CLR 02/00 A3020 RMK AO2 VIS 1800V3200 SLP234 $ HZ WSW (250°) 6.9mph 2°C 0°C
14/01/19 20:19 EGVA 142019Z AUTO 26005KT 3000 HZ CLR 02/00 A3021 RMK AO2 VIS 1400V3000 SLP237 $ HZ W (260°) 5.8mph 2°C 0°C
14/01/19 19:50 EGVA 141950Z AUTO 26005KT 1600 R27/0700VP1500 HZ FEW045 04/01 A3021 RMK AO2 VIS 1600V3600 SLP237 $ HZ W (260°) 5.8mph 4°C 1°C
14/01/19 19:22 EGVA 141922Z AUTO 25005KT 3000 HZ OVC043 05/02 A3020 RMK AO2 VIS 1200V3000 SLP233 $ HZ WSW (250°) 5.8mph 5°C 2°C
14/01/19 18:53 EGVA 141853Z AUTO 26005KT 2800 HZ SCT043 04/01 A3021 RMK AO2 VIS 1200V2800 SLP237 $ HZ W (260°) 5.8mph 4°C 1°C
14/01/19 18:22 EGVA 141822Z AUTO 24004KT 3000 HZ BKN045 06/02 A3020 RMK AO2 VIS 3000V4400 SLP233 $ HZ WSW (240°) 4.6mph 6°C 2°C
14/01/19 17:40 EGVA 141740Z AUTO 25007KT 5000 HZ OVC046 07/02 A3020 RMK AO2 SLP233 $ HZ WSW (250°) 8.1mph 7°C 2°C
14/01/19 17:20 EGVA 141720Z AUTO 26007KT 4400 HZ OVC047 07/02 A3020 RMK AO2 VIS 1800V5000 SLP233 $ HZ W (260°) 8.1mph 7°C 2°C
14/01/19 16:47 EGVA 141647Z AUTO 24006KT 2200 HZ OVC043 07/02 A3020 RMK AO2 SLP233 $ HZ WSW (240°) 6.9mph 7°C 2°C
14/01/19 16:17 EGVA 141617Z AUTO 29004KT 5000 HZ OVC041 08/01 A3020 RMK AO2 SLP232 $ HZ WNW (290°) 4.6mph 8°C 1°C
14/01/19 15:44 EGVA 141544Z AUTO 31009KT 0600 R27/0600VP1500 HZ OVC044 08/00 A3020 RMK AO2 SLP232 $ HZ NW (310°) 10.4mph 8°C 0°C
14/01/19 15:23 EGVA 141523Z AUTO 29008KT 1800 HZ OVC043 09/01 A3019 RMK AO2 VIS 1200V3600 SLP229 $ HZ WNW (290°) 9.2mph 9°C 1°C
14/01/19 14:44 EGVA 141444Z AUTO 30006KT 1200 R27/0700VP1500 HZ OVC039 09/01 A3019 RMK AO2 VIS 1200V3200 SLP229 $ HZ WNW (300°) 6.9mph 9°C 1°C
14/01/19 13:56 EGVA 141356Z COR 30007KT 9999 OVC042 09/01 A3018 RMK AO2A SLP225 T00890008 $ COR 1413 WNW (300°) 8.1mph 8.9°C 0.8°C
14/01/19 12:56 EGVA 141256Z 30009KT 9999 OVC041 09/02 A3018 RMK AO2A SLP225 T00870018 $ WNW (300°) 10.4mph 8.7°C 1.8°C
14/01/19 11:56 EGVA 141156Z 31008KT 9999 OVC043 09/02 A3018 RMK AO2A SLP225 T00880017 10088 20050 51010 $ NW (310°) 9.2mph 8.8°C 1.7°C
14/01/19 10:56 EGVA 141056Z 30003KT 9999 OVC043 08/03 A3018 RMK SLP225 T00810025 $ WNW (300°) 3.5mph 8.1°C 2.5°C
14/01/19 09:56 EGVA 140956Z 27007KT 9999 OVC037 07/03 A3016 RMK AO2A SLP219 T00720029 $ W (270°) 8.1mph 7.2°C 2.9°C
14/01/19 08:56 EGVA 140856Z AUTO 29006KT 9000 HZ OVC041 07/02 A3015 RMK AO2 SLP215 T00700023 52020 $ HZ WNW (290°) 6.9mph 7°C 2.3°C
14/01/19 08:49 EGVA 140849Z AUTO 29006KT 6000 HZ OVC041 06/03 A3014 RMK AO2 SLP212 $ HZ WNW (290°) 6.9mph 6°C 3°C
14/01/19 08:19 EGVA 140819Z AUTO 27005KT 1000 R27/0450VP1500 HZ OVC039 06/02 A3014 RMK AO2 VIS 1000V8000 SLP212 $ HZ W (270°) 5.8mph 6°C 2°C
14/01/19 07:51 EGVA 140751Z AUTO 26004KT 6000 HZ OVC038 06/02 A3012 RMK AO2 SLP205 $ HZ W (260°) 4.6mph 6°C 2°C
14/01/19 07:21 EGVA 140721Z AUTO 29003KT 2000 HZ OVC040 06/02 A3011 RMK AO2 VIS 2000V9999 SLP202 $ HZ WNW (290°) 3.5mph 6°C 2°C
14/01/19 06:36 EGVA 140636Z AUTO 25005KT 9000 HZ OVC037 05/02 A3010 RMK AO2 SLP198 $ HZ WSW (250°) 5.8mph 5°C 2°C
14/01/19 05:56 EGVA 140556Z AUTO 30007KT 6000 HZ BKN037 07/02 A3008 RMK AO2 SLP191 T00680015 10086 20064 52009 $ HZ WNW (300°) 8.1mph 6.8°C 1.5°C
14/01/19 05:51 EGVA 140551Z AUTO 29008KT 3200 HZ BKN037 07/01 A3008 RMK AO2 VIS 3200V8000 SLP191 $ HZ WNW (290°) 9.2mph 7°C 1°C
14/01/19 04:56 EGVA 140456Z AUTO 31009KT 9000 HZ OVC041 08/02 A3007 RMK AO2 SLP187 T00760019 $ HZ NW (310°) 10.4mph 7.6°C 1.9°C
14/01/19 03:56 EGVA 140356Z AUTO 28007KT 9999 OVC045 07/02 A3006 RMK AO2 SLP184 T00700019 $ W (280°) 8.1mph 7°C 1.9°C
14/01/19 03:06 EGVA 140306Z AUTO 29007KT 6000 HZ OVC042 07/02 A3005 RMK AO2 SLP181 $ HZ WNW (290°) 8.1mph 7°C 2°C
14/01/19 02:46 EGVA 140246Z AUTO 26006KT 8000 HZ BKN045 07/02 A3005 RMK AO2 SLP181 $ HZ W (260°) 6.9mph 7°C 2°C
14/01/19 01:56 EGVA 140156Z AUTO 30011KT 6000 HZ CLR 08/02 A3002 RMK AO2 SLP171 T00770020 $ HZ WNW (300°) 12.7mph 7.7°C 2°C
14/01/19 01:36 EGVA 140136Z AUTO 30012KT 9000 HZ SCT045 08/02 A3002 RMK AO2 SLP171 $ HZ WNW (300°) 13.8mph 8°C 2°C
14/01/19 00:56 EGVA 140056Z AUTO 29012KT 9999 OVC044 08/03 A3002 RMK AO2 SLP171 T00830025 $ WNW (290°) 13.8mph 8.3°C 2.5°C
14/01/19 00:46 EGVA 140046Z AUTO 29012KT 4000 HZ BKN040 OVC049 08/03 A3002 RMK AO2 VIS 3600V8000 SLP171 $ HZ WNW (290°) 13.8mph 8°C 3°C
14/01/19 00:21 EGVA 140021Z AUTO 29010G19KT 8000 HZ OVC046 09/02 A3001 RMK AO2 SLP167 $ HZ WNW (290°) 11.5mph 21.9mph 9°C 2°C
13/01/19 23:46 EGVA 132346Z AUTO 27011KT 9000 HZ OVC050 09/02 A3000 RMK AO2 SLP164 $ HZ W (270°) 12.7mph 9°C 2°C
13/01/19 22:56 EGVA 132256Z AUTO 29010KT 9999 OVC046 09/02 A2999 RMK AO2 SLP161 T00880017 $ WNW (290°) 11.5mph 8.8°C 1.7°C
13/01/19 22:46 EGVA 132246Z AUTO 30010KT 5000 HZ OVC048 09/02 A2999 RMK AO2 SLP161 $ HZ WNW (300°) 11.5mph 9°C 2°C
13/01/19 21:56 EGVA 132156Z AUTO 31013G19KT 9999 OVC048 09/01 A2998 RMK AO2 SLP157 T00910013 $ NW (310°) 15.0mph 21.9mph 9.1°C 1.3°C
13/01/19 21:06 EGVA 132106Z AUTO 31013G19KT 9999 BKN048 09/03 A2996 RMK AO2 SLP150 $ NW (310°) 15.0mph 21.9mph 9°C 3°C
13/01/19 19:56 EGVA 131956Z AUTO 31012G25KT 9999 SCT040 10/04 A2992 RMK AO2 PK WND 30029/54 SLP137 T01030040 $ NW (310°) 13.8mph 28.8mph 10.3°C 4°C
13/01/19 19:51 EGVA 131951Z AUTO 31012G22KT 9999 SCT040 10/04 A2992 RMK AO2 SLP137 $ NW (310°) 13.8mph 25.3mph 10°C 4°C
13/01/19 19:16 EGVA 131916Z AUTO 31016G21KT 9000 HZ BKN044 11/04 A2990 RMK AO2 SLP130 $ HZ NW (310°) 18.4mph 24.2mph 11°C 4°C
13/01/19 18:46 EGVA 131846Z AUTO 31012G21KT 9000 HZ BKN041 BKN050 11/05 A2990 RMK AO2 SLP130 $ HZ NW (310°) 13.8mph 24.2mph 11°C 5°C
13/01/19 18:06 EGVA 131806Z AUTO 30014G21KT 9000 HZ SCT040 11/05 A2989 RMK AO2 SLP126 $ HZ WNW (300°) 16.1mph 24.2mph 11°C 5°C
13/01/19 17:46 EGVA 131746Z AUTO 29009G25KT 6000 HZ BKN036 OVC045 11/06 A2989 RMK AO2 SLP126 $ HZ WNW (290°) 10.4mph 28.8mph 11°C 6°C
13/01/19 16:56 EGVA 131656Z AUTO 28012KT 9999 SCT032 OVC041 11/06 A2989 RMK AO2 SLP126 T01090062 $ W (280°) 13.8mph 10.9°C 6.2°C
13/01/19 16:51 EGVA 131651Z AUTO 30010KT 9999 SCT029 OVC037 11/07 A2989 RMK AO2 SLP126 $ WNW (300°) 11.5mph 11°C 7°C
13/01/19 15:56 EGVA 131556Z AUTO 27010KT 9999 BKN021 OVC029 10/08 A2990 RMK AO2 BKN V OVC SLP130 T01030075 $ W (270°) 11.5mph 10.3°C 7.5°C
13/01/19 15:01 EGVA 131501Z AUTO 28013KT 5000 BR OVC020 10/08 A2989 RMK AO2 CIG 018V022 SLP126 $ BR W (280°) 15.0mph 10°C 8°C
13/01/19 13:56 EGVA 131356Z AUTO 25016KT 9999 OVC017 10/08 A2989 RMK AO2 PK WND 26026/01 CIG 016 RWY09 SLP126 T00990075 $ WSW (250°) 18.4mph 9.9°C 7.5°C
13/01/19 13:36 EGVA 131336Z AUTO 25012G21KT 6000 HZ OVC019 10/07 A2991 RMK AO2 SLP133 $ HZ WSW (250°) 13.8mph 24.2mph 10°C 7°C
13/01/19 13:11 EGVA 131311Z AUTO 26019KT 9000 HZ OVC022 10/07 A2990 RMK AO2 SLP130 $ HZ W (260°) 21.9mph 10°C 7°C
13/01/19 12:51 EGVA 131251Z AUTO 25022G26KT 5000 HZ OVC020 10/07 A2990 RMK AO2 SLP130 $ HZ WSW (250°) 25.3mph 29.9mph 10°C 7°C
13/01/19 11:56 EGVA 131156Z AUTO 26016KT 6000 HZ OVC013 10/07 A2995 RMK AO2 SLP147 T00960070 10096 20080 57020 $ HZ W (260°) 18.4mph 9.6°C 7°C
13/01/19 11:26 EGVA 131126Z AUTO 25018KT 9000 HZ OVC014 10/07 A2995 RMK AO2 SLP147 $ HZ WSW (250°) 20.7mph 10°C 7°C
13/01/19 10:56 EGVA 131056Z AUTO 25015G23KT 6000 HZ OVC019 09/07 A2997 RMK AO2 CIG 016V021 SLP153 T00940067 $ HZ WSW (250°) 17.3mph 26.5mph 9.4°C 6.7°C
13/01/19 10:51 EGVA 131051Z AUTO 25017G23KT 9999 BKN016 OVC021 09/07 A2997 RMK AO2 CIG 016V021 SLP153 $ WSW (250°) 19.6mph 26.5mph 9°C 7°C
13/01/19 09:56 EGVA 130956Z AUTO 26015KT 9999 BKN029 OVC140 09/06 A3000 RMK AO2 CIG 029V140 CIG 028 RWY09 SLP164 T00880059 $ W (260°) 17.3mph 8.8°C 5.9°C
13/01/19 08:56 EGVA 130856Z AUTO 26017KT 9999 OVC130 08/06 A3000 RMK AO2 SLP164 T00820060 50001 $ W (260°) 19.6mph 8.2°C 6°C
13/01/19 07:56 EGVA 130756Z AUTO 26014KT 8000 BR BKN100 BKN130 08/06 A3001 RMK AO2 SLP168 T00830063 $ BR W (260°) 16.1mph 8.3°C 6.3°C
13/01/19 07:16 EGVA 130716Z AUTO 27014KT 6000 BR BKN110 09/06 A3001 RMK AO2 SLP167 $ BR W (270°) 16.1mph 9°C 6°C
13/01/19 06:36 EGVA 130636Z AUTO 27018G24KT 5000 BR SCT130 BKN150 09/07 A3000 RMK AO2 SLP164 $ BR W (270°) 20.7mph 27.6mph 9°C 7°C
13/01/19 06:06 EGVA 130606Z AUTO 27018KT 9000 BR OVC150 09/07 A3001 RMK AO2 SLP167 $ BR W (270°) 20.7mph 9°C 7°C
13/01/19 04:56 EGVA 130456Z AUTO 27014KT 9000 HZ OVC140 10/07 A3002 RMK AO2 SLP171 T00990070 $ HZ W (270°) 16.1mph 9.9°C 7°C
13/01/19 04:16 EGVA 130416Z AUTO 27014G23KT 9999 SCT020 OVC160 10/07 A3003 RMK AO2 SLP174 $ W (270°) 16.1mph 26.5mph 10°C 7°C
13/01/19 03:41 EGVA 130341Z AUTO 27013KT 9000 HZ BKN022 OVC170 10/07 A3005 RMK AO2 CIG 022V170 BKN V SCT CIG 018 RWY09 SLP180 $ HZ W (270°) 15.0mph 10°C 7°C
13/01/19 02:56 EGVA 130256Z AUTO 26014KT 9999 SCT022 OVC170 10/07 A3006 RMK AO2 SLP184 T01000072 56015 $ W (260°) 16.1mph 10°C 7.2°C
13/01/19 01:56 EGVA 130156Z AUTO 27012KT 9999 SCT022 OVC130 10/07 A3006 RMK AO2 SLP184 T00970068 $ W (270°) 13.8mph 9.7°C 6.8°C
13/01/19 01:51 EGVA 130151Z AUTO 25010KT 9000 M SCT022 OVC130 10/07 A3007 RMK AO2 SLP187 $ WSW (250°) 11.5mph 10°C 7°C
13/01/19 00:56 EGVA 130056Z AUTO 29013KT 9999 OVC021 11/07 A3009 RMK AO2 SLP194 T01080069 $ WNW (290°) 15.0mph 10.8°C 6.9°C
13/01/19 00:06 EGVA 130006Z AUTO 29009KT 9000 M BKN022 BKN140 11/07 A3011 RMK AO2 CIG 022V140 SLP201 $ WNW (290°) 10.4mph 11°C 7°C
12/01/19 22:56 EGVA 122256Z AUTO 29011KT 9000 HZ OVC150 11/06 A3012 RMK AO2 SLP204 T01070063 $ HZ WNW (290°) 12.7mph 10.7°C 6.3°C
12/01/19 21:56 EGVA 122156Z AUTO 28014G21KT 9000 HZ SCT035 OVC140 11/06 A3012 RMK AO2 SLP204 T01060062 $ HZ W (280°) 16.1mph 24.2mph 10.6°C 6.2°C
12/01/19 21:06 EGVA 122106Z AUTO 28011KT 8000 HZ SCT023 BKN140 09/06 A3013 RMK AO2 SLP208 $ HZ W (280°) 12.7mph 9°C 6°C
12/01/19 19:56 EGVA 121956Z AUTO 27009KT 8000 HZ OVC021 09/06 A3014 RMK AO2 SLP212 T00870058 $ HZ W (270°) 10.4mph 8.7°C 5.8°C
12/01/19 18:56 EGVA 121856Z AUTO 26009KT 9999 OVC023 08/05 A3014 RMK AO2 SLP212 T00800048 $ W (260°) 10.4mph 8°C 4.8°C
12/01/19 18:11 EGVA 121811Z AUTO 25009KT 6000 HZ BKN022 OVC190 08/05 A3014 RMK AO2 SLP212 $ HZ WSW (250°) 10.4mph 8°C 5°C
12/01/19 17:41 EGVA 121741Z AUTO 26011KT 9000 M SCT024 SCT100 OVC190 08/05 A3014 RMK AO2 SLP212 $ W (260°) 12.7mph 8°C 5°C
12/01/19 16:56 EGVA 121656Z AUTO 27011KT 9999 BKN025 BKN110 09/05 A3015 RMK AO2 CIG 024 RWY09 SLP215 T00860046 $ W (270°) 12.7mph 8.6°C 4.6°C
12/01/19 16:41 EGVA 121641Z AUTO 27011KT 6000 HZ BKN025 BKN110 09/05 A3015 RMK AO2 SLP215 $ HZ W (270°) 12.7mph 9°C 5°C
12/01/19 16:11 EGVA 121611Z AUTO 29013G18KT 9999 BKN028 OVC100 09/04 A3016 RMK AO2 CIG 028V100 SLP219 $ WNW (290°) 15.0mph 20.7mph 9°C 4°C
12/01/19 15:48 EGVA 121548Z AUTO 29014KT 5000 HZ FEW029 SCT100 OVC150 10/04 A3016 RMK AO2 SLP218 $ HZ WNW (290°) 16.1mph 10°C 4°C
12/01/19 15:08 EGVA 121508Z AUTO 29011G16KT 5000 HZ OVC028 10/04 A3017 RMK AO2 SLP222 $ HZ WNW (290°) 12.7mph 18.4mph 10°C 4°C
12/01/19 14:31 EGVA 121431Z AUTO 30008G16KT 9000 HZ OVC030 10/04 A3018 RMK AO2 SLP225 $ HZ WNW (300°) 9.2mph 18.4mph 10°C 4°C
12/01/19 13:56 EGVA 121356Z AUTO 28010KT 9999 BKN026 OVC035 10/05 A3017 RMK AO2 BKN V OVC SLP222 T00970051 $ W (280°) 11.5mph 9.7°C 5.1°C
12/01/19 13:26 EGVA 121326Z AUTO 29010KT 9000 HZ BKN028 BKN033 OVC150 10/06 A3018 RMK AO2 CIG 027 RWY09 SLP225 $ HZ WNW (290°) 11.5mph 10°C 6°C
12/01/19 13:21 EGVA 121321Z AUTO 30010KT 5000 HZ BKN030 OVC150 10/06 A3018 RMK AO2 SLP225 $ HZ WNW (300°) 11.5mph 10°C 6°C